Brcko, Bosnia and Herzegovina
Current Conditions -  °F | °C
As of 9:00 PM on Thursday 18 Dec 2014 (Local Time) from LQTZ Reporting Station
Broken Clouds Broken Clouds  
Wind Chill: 39°   Ceiling: 6000
Heat Index: 39°   Visibility: 6mi
Dew Point: 39°   Wind: 2mph
Humidity: 100%   Direction: NA
Pressure: 30.15"   Gusts: NA
Location:  44.87°N, 18.81°E
Report Text: LQTZ 181900Z VRB02KT 9999 BKN060 04/04 Q1021
Loading
Personal Weather Stations






























Interactive Weather Map New forecast layout! Learn more

10-Day Weather Forecast

Advertisements
Track Severe Weather on mobile